createdAt,value
2023-11-12T00:01:28.998Z,16.80
2023-11-12T00:04:58.748Z,15.70
2023-11-12T00:08:25.998Z,16.17
2023-11-12T00:11:52.266Z,12.57
2023-11-12T00:15:17.809Z,15.13
2023-11-12T00:18:44.095Z,16.13
2023-11-12T00:22:13.667Z,16.35
2023-11-12T00:25:39.759Z,13.23
2023-11-12T00:29:05.410Z,12.98
2023-11-12T00:32:31.536Z,13.57
2023-11-12T00:35:57.505Z,16.00
2023-11-12T00:39:27.726Z,15.32
2023-11-12T00:42:53.657Z,12.98
2023-11-12T00:46:19.771Z,16.80
2023-11-12T00:49:45.538Z,12.60
2023-11-12T00:53:11.312Z,16.35
2023-11-12T00:56:39.513Z,14.63
2023-11-12T01:00:06.849Z,15.65
2023-11-12T01:03:35.503Z,15.25
2023-11-12T01:07:02.223Z,15.02
2023-11-12T01:10:27.988Z,15.85
2023-11-12T01:13:57.074Z,13.07
2023-11-12T01:17:22.555Z,15.02
2023-11-12T01:20:48.860Z,14.85
2023-11-12T01:24:14.752Z,15.65
2023-11-12T01:27:40.881Z,18.08
2023-11-12T01:31:09.481Z,15.85
2023-11-12T01:34:35.510Z,20.20
2023-11-12T01:38:01.206Z,12.98
2023-11-12T01:41:27.351Z,15.85
2023-11-12T01:44:52.985Z,14.15
2023-11-12T01:48:22.261Z,13.32
2023-11-12T01:51:48.008Z,16.70
2023-11-12T01:55:14.856Z,16.45
2023-11-12T01:58:40.577Z,16.08
2023-11-12T02:02:07.183Z,13.10
2023-11-12T02:05:35.460Z,14.27
2023-11-12T02:09:01.640Z,15.55
2023-11-12T02:12:27.419Z,16.15
2023-11-12T02:15:54.295Z,16.10
2023-11-12T02:19:28.727Z,16.88
2023-11-12T02:22:57.592Z,15.32
2023-11-12T02:26:26.252Z,15.05
2023-11-12T02:29:53.068Z,16.10
2023-11-12T02:33:19.088Z,15.88
2023-11-12T02:36:45.745Z,16.42
2023-11-12T02:40:13.660Z,16.20
2023-11-12T02:43:42.898Z,17.85
2023-11-12T02:47:08.604Z,18.00
2023-11-12T02:50:36.890Z,16.70
2023-11-12T02:54:02.240Z,15.02
2023-11-12T02:57:28.597Z,17.58
2023-11-12T03:00:57.776Z,16.92
2023-11-12T03:04:24.352Z,14.52
2023-11-12T03:07:50.030Z,15.65
2023-11-12T03:11:15.857Z,19.05
2023-11-12T03:14:41.516Z,15.10
2023-11-12T03:18:12.247Z,16.25
2023-11-12T03:21:38.000Z,16.90
2023-11-12T03:25:05.896Z,20.08
2023-11-12T03:28:31.563Z,20.30
2023-11-12T03:31:58.254Z,18.35
2023-11-12T03:35:30.536Z,21.02
2023-11-12T03:38:57.763Z,20.52
2023-11-12T03:42:23.432Z,20.60
2023-11-12T03:45:49.712Z,19.63
2023-11-12T03:49:16.525Z,21.65
2023-11-12T03:52:45.252Z,20.65
2023-11-12T03:56:11.410Z,19.88
2023-11-12T03:59:39.918Z,18.50
2023-11-12T04:03:06.769Z,20.55
2023-11-12T04:06:33.239Z,20.10
2023-11-12T04:10:01.688Z,27.83
2023-11-12T04:13:27.864Z,19.15
2023-11-12T04:16:53.487Z,19.23
2023-11-12T04:20:19.845Z,20.45
2023-11-12T04:23:47.890Z,18.08
2023-11-12T04:27:17.201Z,18.92
2023-11-12T04:30:42.982Z,19.90
2023-11-12T04:34:09.309Z,21.52
2023-11-12T04:37:34.946Z,19.20
2023-11-12T04:41:00.991Z,20.35
2023-11-12T04:44:30.027Z,20.30
2023-11-12T04:47:56.105Z,24.75
2023-11-12T04:51:22.027Z,23.60
2023-11-12T04:54:52.069Z,20.95
2023-11-12T04:58:17.476Z,21.25
2023-11-12T05:01:46.344Z,17.35
2023-11-12T05:05:12.435Z,18.67
2023-11-12T05:08:39.541Z,19.52
2023-11-12T05:12:05.690Z,19.10
2023-11-12T05:15:31.776Z,20.00
2023-11-12T05:19:01.156Z,20.77
2023-11-12T05:22:27.304Z,18.65
2023-11-12T05:25:54.292Z,20.45
2023-11-12T05:29:20.076Z,19.52
2023-11-12T05:32:45.992Z,20.48
2023-11-12T05:36:18.067Z,20.55
2023-11-12T05:39:45.020Z,17.08
2023-11-12T05:43:12.128Z,20.25
2023-11-12T05:46:39.452Z,17.17
2023-11-12T05:50:07.615Z,17.60
2023-11-12T05:53:36.078Z,19.58
2023-11-12T05:57:02.093Z,20.60
2023-11-12T06:00:27.782Z,19.50
2023-11-12T06:03:54.010Z,18.83
2023-11-12T06:07:19.515Z,18.33
2023-11-12T06:10:50.259Z,20.35
2023-11-12T06:14:15.697Z,19.08
2023-11-12T06:17:42.384Z,17.70
2023-11-12T06:21:08.185Z,18.17
2023-11-12T06:24:34.610Z,21.30
2023-11-12T06:28:03.587Z,18.38
2023-11-12T06:31:29.640Z,22.58
2023-11-12T06:34:56.791Z,18.38
2023-11-12T06:38:23.108Z,17.45
2023-11-12T06:41:49.018Z,23.02
2023-11-12T06:45:17.731Z,17.45
2023-11-12T06:48:44.419Z,20.73
2023-11-12T06:52:10.147Z,19.08
2023-11-12T06:55:36.379Z,17.58
2023-11-12T06:59:02.137Z,19.98
2023-11-12T07:02:31.116Z,21.77
2023-11-12T07:05:56.757Z,19.27
2023-11-12T07:09:23.077Z,20.08
2023-11-12T07:12:49.807Z,19.35
2023-11-12T07:16:19.605Z,20.80
2023-11-12T07:19:48.186Z,20.38
2023-11-12T07:23:14.394Z,16.88
2023-11-12T07:26:40.182Z,20.23
2023-11-12T07:30:06.374Z,18.50
2023-11-12T07:33:32.268Z,20.88
2023-11-12T07:37:00.834Z,22.25
2023-11-12T07:40:27.784Z,22.33
2023-11-12T07:43:53.902Z,20.13
2023-11-12T07:47:19.405Z,23.60
2023-11-12T07:50:45.524Z,18.10
2023-11-12T07:54:14.013Z,19.52
2023-11-12T07:57:40.731Z,16.30
2023-11-12T08:01:06.524Z,20.75
2023-11-12T08:04:33.073Z,16.27
2023-11-12T08:07:58.809Z,15.82
2023-11-12T08:11:29.585Z,15.60
2023-11-12T08:14:55.346Z,17.52
2023-11-12T08:18:23.433Z,14.13
2023-11-12T08:21:54.584Z,13.45
2023-11-12T08:25:20.996Z,14.57
2023-11-12T08:28:52.971Z,15.10
2023-11-12T08:32:19.181Z,14.80
2023-11-12T08:35:44.870Z,16.98
2023-11-12T08:39:14.002Z,17.17
2023-11-12T08:42:39.826Z,11.85
2023-11-12T08:46:09.196Z,11.90
2023-11-12T08:49:37.144Z,14.25
2023-11-12T08:53:06.647Z,12.38
2023-11-12T08:56:32.868Z,14.00
2023-11-12T08:59:59.788Z,11.88
2023-11-12T09:03:29.669Z,10.95
2023-11-12T09:07:05.392Z,10.80
2023-11-12T09:10:31.309Z,12.75
2023-11-12T09:13:57.093Z,12.63
2023-11-12T09:17:23.306Z,13.77
2023-11-12T09:20:52.463Z,12.38
2023-11-12T09:24:18.326Z,10.43
2023-11-12T09:27:45.938Z,10.35
2023-11-12T09:31:12.581Z,9.57
2023-11-12T09:34:39.774Z,11.23
2023-11-12T09:38:08.730Z,9.40
2023-11-12T09:41:39.302Z,8.93
2023-11-12T09:45:06.810Z,9.38
2023-11-12T09:48:37.318Z,9.63
2023-11-12T09:52:04.419Z,8.27
2023-11-12T09:55:36.568Z,8.82
2023-11-12T09:59:02.545Z,7.05
2023-11-12T10:02:30.762Z,6.30
2023-11-12T10:05:56.776Z,6.57
2023-11-12T10:09:29.604Z,5.88
2023-11-12T10:12:58.688Z,7.03
2023-11-12T10:16:25.419Z,7.95
2023-11-12T10:19:59.194Z,6.25
2023-11-12T10:23:33.016Z,6.10
2023-11-12T10:27:00.291Z,6.68
2023-11-12T10:30:30.984Z,7.57
2023-11-12T10:34:02.864Z,6.17
2023-11-12T10:37:31.965Z,7.63
2023-11-12T10:41:05.651Z,6.93
2023-11-12T10:44:31.766Z,7.50
2023-11-12T10:48:00.809Z,7.38
2023-11-12T10:51:28.137Z,6.90
2023-11-12T10:54:54.661Z,7.47
2023-11-12T10:58:22.504Z,7.60
2023-11-12T11:01:48.258Z,7.65
2023-11-12T11:05:17.884Z,7.32
2023-11-12T11:08:43.624Z,8.05
2023-11-12T11:12:09.969Z,6.80
2023-11-12T11:15:45.710Z,7.28
2023-11-12T11:19:11.794Z,6.03
2023-11-12T11:22:40.343Z,5.85
2023-11-12T11:26:20.981Z,5.75
2023-11-12T11:30:04.006Z,8.45
2023-11-12T11:33:30.081Z,6.55
2023-11-12T11:37:03.471Z,6.57
2023-11-12T11:40:41.506Z,5.50
2023-11-12T11:44:35.174Z,7.63
2023-11-12T11:48:10.373Z,8.93
2023-11-12T11:51:50.937Z,7.55
2023-11-12T11:55:22.367Z,4.88
2023-11-12T11:58:51.073Z,5.97
2023-11-12T12:02:19.783Z,6.35
2023-11-12T12:05:48.292Z,5.85
2023-11-12T12:09:18.794Z,5.47
2023-11-12T12:12:44.792Z,4.97
2023-11-12T12:16:10.702Z,5.70
2023-11-12T12:19:37.163Z,5.90
2023-11-12T12:23:07.461Z,5.10
2023-11-12T12:26:33.406Z,5.28
2023-11-12T12:30:00.573Z,5.45
2023-11-12T12:33:27.282Z,6.18
2023-11-12T12:37:01.528Z,5.78
2023-11-12T12:40:32.865Z,5.47
2023-11-12T12:44:03.313Z,7.30
2023-11-12T12:47:32.700Z,5.05
2023-11-12T12:51:04.556Z,4.82
2023-11-12T12:54:32.164Z,5.82
2023-11-12T12:58:04.208Z,5.40
2023-11-12T13:01:32.394Z,5.47
2023-11-12T13:05:01.588Z,5.88
2023-11-12T13:08:27.445Z,4.72
2023-11-12T13:11:53.974Z,5.22
2023-11-12T13:15:23.436Z,5.30
2023-11-12T13:18:50.083Z,6.22
2023-11-12T13:22:15.958Z,5.18
2023-11-12T13:25:43.588Z,4.93
2023-11-12T13:29:11.132Z,5.18
2023-11-12T13:32:41.692Z,5.05
2023-11-12T13:36:08.532Z,5.53
2023-11-12T13:39:38.278Z,5.60
2023-11-12T13:43:04.601Z,4.70
2023-11-12T13:46:31.212Z,4.53
2023-11-12T13:49:59.796Z,7.75
2023-11-12T13:53:26.124Z,4.50
2023-11-12T13:56:52.265Z,4.05
2023-11-12T14:00:19.300Z,5.45
2023-11-12T14:03:45.276Z,4.10
2023-11-12T14:07:15.330Z,5.70
2023-11-12T14:10:41.093Z,6.10
2023-11-12T14:14:07.596Z,5.90
2023-11-12T14:17:36.612Z,5.03
2023-11-12T14:21:03.614Z,6.40
2023-11-12T14:24:32.920Z,6.38
2023-11-12T14:27:59.229Z,5.65
2023-11-12T14:31:24.968Z,8.30
2023-11-12T14:34:51.164Z,5.72
2023-11-12T14:38:22.483Z,6.90
2023-11-12T14:41:53.583Z,6.80
2023-11-12T14:45:30.200Z,7.32
2023-11-12T14:48:59.897Z,6.57
2023-11-12T14:52:25.774Z,7.40
2023-11-12T14:55:55.225Z,6.97
2023-11-12T14:59:23.684Z,7.97
2023-11-12T15:02:53.861Z,8.98
2023-11-12T15:06:20.195Z,7.95
2023-11-12T15:09:46.322Z,8.02
2023-11-12T15:13:12.470Z,8.82
2023-11-12T15:16:42.655Z,7.82
2023-11-12T15:20:10.876Z,10.77
2023-11-12T15:23:37.106Z,9.48
2023-11-12T15:27:03.140Z,10.18
2023-11-12T15:30:29.453Z,10.98
2023-11-12T15:33:58.578Z,11.40
2023-11-12T15:37:27.266Z,10.73
2023-11-12T15:40:53.309Z,14.32
2023-11-12T15:44:20.085Z,9.70
2023-11-12T15:47:49.461Z,11.20
2023-11-12T15:51:21.025Z,11.27
2023-11-12T15:55:02.243Z,11.05
2023-11-12T15:58:30.226Z,9.48
2023-11-12T16:01:56.296Z,10.40
2023-11-12T16:05:25.846Z,13.02
2023-11-12T16:08:56.830Z,13.75
2023-11-12T16:12:26.916Z,13.25
2023-11-12T16:15:54.645Z,11.60
2023-11-12T16:19:20.940Z,13.20
2023-11-12T16:22:46.468Z,10.40
2023-11-12T16:26:17.174Z,10.93
2023-11-12T16:29:42.714Z,9.48
2023-11-12T16:33:08.711Z,13.10
2023-11-12T16:36:40.402Z,10.23
2023-11-12T16:40:07.166Z,10.43
2023-11-12T16:43:35.214Z,14.63
2023-11-12T16:47:03.122Z,9.85
2023-11-12T16:50:29.737Z,9.38
2023-11-12T16:53:56.153Z,8.98
2023-11-12T16:57:21.589Z,11.15
2023-11-12T17:00:50.509Z,8.68
2023-11-12T17:04:16.157Z,9.63
2023-11-12T17:07:44.347Z,8.73
2023-11-12T17:11:09.892Z,8.20
2023-11-12T17:14:37.088Z,9.40
2023-11-12T17:18:05.449Z,8.35
2023-11-12T17:21:34.088Z,8.77
2023-11-12T17:25:02.540Z,7.72
2023-11-12T17:28:30.709Z,9.25
2023-11-12T17:31:56.067Z,8.70
2023-11-12T17:35:25.288Z,6.97
2023-11-12T17:38:50.897Z,10.50
2023-11-12T17:42:16.653Z,9.60
2023-11-12T17:45:42.169Z,10.55
2023-11-12T17:49:08.436Z,10.43
2023-11-12T17:52:37.100Z,10.10
2023-11-12T17:56:03.086Z,10.85
2023-11-12T17:59:29.036Z,12.18
2023-11-12T18:02:54.914Z,11.25
2023-11-12T18:06:20.557Z,13.02
2023-11-12T18:09:51.796Z,11.23
2023-11-12T18:13:19.331Z,12.75
2023-11-12T18:16:46.232Z,14.43
2023-11-12T18:20:12.108Z,14.38
2023-11-12T18:23:39.842Z,15.07
2023-11-12T18:27:08.277Z,16.67
2023-11-12T18:30:34.266Z,13.73
2023-11-12T18:33:59.753Z,11.90
2023-11-12T18:37:26.134Z,13.40
2023-11-12T18:40:52.220Z,12.52
2023-11-12T18:44:21.080Z,12.57
2023-11-12T18:47:48.197Z,12.88
2023-11-12T18:51:14.491Z,14.00
2023-11-12T18:54:39.867Z,11.40
2023-11-12T18:58:05.678Z,12.23
2023-11-12T19:01:36.273Z,11.50
2023-11-12T19:05:04.013Z,12.85
2023-11-12T19:08:30.278Z,14.35
2023-11-12T19:11:56.629Z,12.82
2023-11-12T19:15:22.137Z,11.18
2023-11-12T19:18:51.016Z,11.27
2023-11-12T19:22:17.533Z,12.90
2023-11-12T19:25:44.521Z,11.38
2023-11-12T19:29:09.948Z,11.07
2023-11-12T19:32:35.880Z,11.73
2023-11-12T19:36:04.860Z,13.00
2023-11-12T19:39:31.854Z,12.65
2023-11-12T19:42:58.031Z,14.23
2023-11-12T19:46:23.903Z,13.07
2023-11-12T19:49:49.548Z,12.43
2023-11-12T19:53:20.387Z,12.57
2023-11-12T19:56:46.141Z,9.35
2023-11-12T20:00:14.039Z,16.33
2023-11-12T20:03:39.851Z,13.77
2023-11-12T20:07:06.115Z,14.98
2023-11-12T20:10:34.226Z,14.55
2023-11-12T20:14:03.728Z,13.95
2023-11-12T20:17:30.131Z,14.68
2023-11-12T20:20:56.055Z,12.10
2023-11-12T20:24:21.498Z,18.23
2023-11-12T20:27:51.934Z,21.23
2023-11-12T20:31:19.230Z,13.90
2023-11-12T20:34:46.085Z,15.23
2023-11-12T20:38:13.123Z,14.65
2023-11-12T20:41:39.891Z,15.90
2023-11-12T20:45:08.784Z,13.70
2023-11-12T20:48:34.621Z,15.20
2023-11-12T20:52:00.659Z,15.50
2023-11-12T20:55:26.780Z,19.02
2023-11-12T20:58:52.224Z,18.20
2023-11-12T21:02:25.474Z,15.52
2023-11-12T21:05:53.328Z,15.10
2023-11-12T21:09:19.165Z,14.95
2023-11-12T21:12:45.686Z,16.13
2023-11-12T21:16:12.812Z,14.00
2023-11-12T21:19:40.893Z,16.05
2023-11-12T21:23:08.144Z,14.10
2023-11-12T21:26:34.394Z,17.55
2023-11-12T21:30:03.087Z,14.02
2023-11-12T21:33:33.148Z,15.52
2023-11-12T21:37:01.662Z,19.27
2023-11-12T21:40:28.311Z,15.18
2023-11-12T21:43:56.916Z,14.73
2023-11-12T21:47:24.513Z,15.95
2023-11-12T21:50:51.768Z,14.60
2023-11-12T21:54:22.094Z,17.05
2023-11-12T21:57:47.996Z,16.23
2023-11-12T22:01:14.099Z,17.98
2023-11-12T22:04:39.819Z,14.90
2023-11-12T22:08:05.770Z,18.30
2023-11-12T22:11:34.868Z,15.20
2023-11-12T22:15:00.753Z,18.33
2023-11-12T22:18:26.205Z,16.40
2023-11-12T22:21:54.285Z,17.45
2023-11-12T22:25:19.852Z,17.42
2023-11-12T22:28:48.298Z,18.45
2023-11-12T22:32:14.024Z,18.15
2023-11-12T22:35:39.871Z,16.20
2023-11-12T22:39:06.340Z,21.77
2023-11-12T22:42:31.999Z,17.63
2023-11-12T22:46:00.970Z,15.48
2023-11-12T22:49:26.370Z,18.55
2023-11-12T22:52:52.097Z,18.17
2023-11-12T22:56:17.463Z,15.40
2023-11-12T22:59:43.236Z,18.30
2023-11-12T23:03:11.709Z,19.55
2023-11-12T23:06:37.504Z,18.90
2023-11-12T23:10:08.527Z,17.10
2023-11-12T23:13:34.386Z,18.38
2023-11-12T23:17:01.431Z,15.32
2023-11-12T23:20:29.915Z,17.58
2023-11-12T23:23:55.688Z,18.08
2023-11-12T23:27:21.435Z,18.98
2023-11-12T23:30:47.226Z,15.50
2023-11-12T23:34:13.099Z,18.15
2023-11-12T23:37:41.210Z,17.95
2023-11-12T23:41:08.037Z,17.67
2023-11-12T23:44:33.774Z,18.67
2023-11-12T23:47:59.529Z,22.05
2023-11-12T23:51:24.941Z,18.75
2023-11-12T23:54:53.298Z,17.20
2023-11-12T23:58:18.711Z,17.35
